Time;durP1;ratioP1;P1;durP2;ratioP2;P2;SDS_P1;SDS_P2;PMS_P1;PMS_P2;Temp;Humidity;BMP_temperature;BMP_pressure;BME280_temperature;BME280_humidity;BME280_pressure;Samples;Min_cycle;Max_cycle;Signal;HPM_P1;HPM_P2
2023/01/07 00:01:32;;;;;;;0.32;0.32;;;8.40;99.90;;;;;;5058182;28;20047;-62
2023/01/07 00:03:59;;;;;;;0.77;0.57;;;8.40;99.90;;;;;;5051413;28;20496;-63
2023/01/07 00:06:34;;;;;;;0.40;0.20;;;8.40;99.90;;;;;;5047549;28;20052;-63
2023/01/07 00:09:01;;;;;;;1.13;0.30;;;8.50;99.90;;;;;;5059646;28;20060;-62
2023/01/07 00:11:31;;;;;;;5.53;0.38;;;8.40;99.90;;;;;;5054610;28;20572;-61
2023/01/07 00:13:59;;;;;;;2.60;0.40;;;8.40;99.90;;;;;;5060417;28;20036;-62
2023/01/07 00:16:27;;;;;;;0.93;0.30;;;8.50;99.90;;;;;;5058296;28;20045;-63
2023/01/07 00:18:54;;;;;;;0.73;0.50;;;8.40;99.90;;;;;;5045674;28;20041;-63
2023/01/07 00:21:21;;;;;;;2.30;0.50;;;8.40;99.90;;;;;;5043826;28;20052;-62
2023/01/07 00:23:48;;;;;;;0.60;0.40;;;8.50;99.90;;;;;;5043446;28;20045;-63
2023/01/07 00:26:17;;;;;;;2.15;0.85;;;8.50;99.90;;;;;;5038683;28;20048;-64
2023/01/07 00:28:44;;;;;;;1.08;0.43;;;8.50;99.90;;;;;;5041180;28;20052;-63
2023/01/07 00:31:15;;;;;;;0.40;0.20;;;8.50;99.90;;;;;;5049596;28;20123;-63
2023/01/07 00:34:05;;;;;;;2.25;0.65;;;8.50;99.90;;;;;;5048014;28;20032;-63
2023/01/07 00:36:30;;;;;;;2.67;0.65;;;8.50;99.90;;;;;;5061235;28;20040;-63
2023/01/07 00:39:10;;;;;;;2.83;0.50;;;8.50;99.90;;;;;;5054268;28;20136;-62
2023/01/07 00:41:36;;;;;;;0.38;0.35;;;8.50;99.90;;;;;;5063800;28;20067;-63
2023/01/07 00:44:03;;;;;;;;;;;8.50;99.90;;;;;;5062178;28;20041;-63
2023/01/07 00:46:28;;;;;;;0.40;0.40;;;8.50;99.90;;;;;;5056147;28;20068;-63
2023/01/07 00:48:54;;;;;;;;;;;8.50;99.90;;;;;;5063176;28;20469;-63
2023/01/07 00:51:20;;;;;;;0.82;0.50;;;8.50;99.90;;;;;;5061099;28;19927;-62
2023/01/07 00:53:46;;;;;;;0.40;0.30;;;8.50;99.90;;;;;;5060086;28;20041;-63
2023/01/07 00:56:13;;;;;;;0.40;0.38;;;8.40;99.90;;;;;;5053771;28;20040;-62
2023/01/07 00:58:39;;;;;;;0.47;0.30;;;8.40;99.90;;;;;;5061873;28;20044;-63
2023/01/07 01:01:05;;;;;;;;;;;8.50;99.90;;;;;;5054971;28;20047;-63
2023/01/07 01:03:31;;;;;;;0.80;0.50;;;8.50;99.90;;;;;;5058869;28;19917;-64
2023/01/07 01:06:05;;;;;;;0.70;0.40;;;8.50;99.90;;;;;;5055792;28;20048;-61
2023/01/07 01:08:31;;;;;;;1.38;0.45;;;8.50;99.90;;;;;;5061830;28;20123;-63
2023/01/07 01:11:01;;;;;;;;;;;8.50;99.90;;;;;;5064908;28;20165;-63
2023/01/07 01:13:27;;;;;;;1.40;0.43;;;8.50;99.90;;;;;;5060888;28;19920;-63
2023/01/07 01:15:52;;;;;;;;;;;8.50;99.90;;;;;;5060338;28;20052;-63
2023/01/07 01:18:18;;;;;;;0.70;0.40;;;8.50;99.90;;;;;;5064447;28;19924;-63
2023/01/07 01:20:44;;;;;;;1.20;0.40;;;8.50;99.90;;;;;;5060191;28;20041;-63
2023/01/07 01:23:09;;;;;;;1.05;0.40;;;8.50;99.90;;;;;;5058351;28;20025;-63
2023/01/07 01:25:35;;;;;;;0.80;0.43;;;8.50;99.90;;;;;;5060799;28;20097;-62
2023/01/07 01:28:00;;;;;;;;;;;8.50;99.90;;;;;;5061654;28;20040;-64
2023/01/07 01:30:26;;;;;;;2.60;0.40;;;8.50;99.90;;;;;;5056739;28;19916;-61
2023/01/07 01:32:52;;;;;;;1.25;0.50;;;8.60;99.90;;;;;;5062442;28;20052;-62
2023/01/07 01:35:17;;;;;;;0.40;0.40;;;8.60;99.90;;;;;;5057130;28;20477;-63
2023/01/07 01:37:43;;;;;;;0.77;0.32;;;8.60;99.90;;;;;;5056509;28;20429;-64
2023/01/07 01:40:10;;;;;;;;;;;8.60;99.90;;;;;;5063297;28;20062;-62
2023/01/07 01:42:35;;;;;;;0.45;0.45;;;8.60;99.90;;;;;;5064592;28;19920;-63
2023/01/07 01:45:01;;;;;;;0.40;0.40;;;8.60;99.90;;;;;;5059842;28;20048;-60
2023/01/07 01:47:36;;;;;;;0.90;0.52;;;8.60;99.90;;;;;;5060427;28;20041;-62
2023/01/07 01:50:24;;;;;;;0.77;0.60;;;8.60;99.90;;;;;;5059816;28;20032;-63
2023/01/07 01:53:08;;;;;;;0.70;0.50;;;8.60;99.90;;;;;;5056344;28;20108;-63
2023/01/07 01:55:37;;;;;;;0.77;0.40;;;8.60;99.90;;;;;;5055115;28;20577;-63
2023/01/07 01:58:08;;;;;;;0.95;0.38;;;8.60;99.90;;;;;;5061436;28;20467;-63
2023/01/07 02:00:35;;;;;;;0.73;0.40;;;8.60;99.90;;;;;;5054099;28;20044;-64
2023/01/07 02:03:04;;;;;;;0.55;0.50;;;8.60;99.90;;;;;;5061583;28;20044;-63
2023/01/07 02:05:36;;;;;;;1.67;0.40;;;8.60;99.90;;;;;;5059407;28;21038;-64
2023/01/07 02:08:02;;;;;;;0.50;0.47;;;8.60;99.90;;;;;;5061761;28;20068;-63
2023/01/07 02:10:30;;;;;;;;;;;8.60;99.90;;;;;;5058246;28;20838;-63
2023/01/07 02:13:16;;;;;;;1.02;0.40;;;8.60;99.90;;;;;;5060740;28;19947;-63
2023/01/07 02:15:47;;;;;;;1.75;0.40;;;8.60;99.90;;;;;;5059797;28;20044;-63
2023/01/07 02:18:29;;;;;;;2.20;0.35;;;8.60;99.90;;;;;;5060302;28;20139;-64
2023/01/07 02:21:02;;;;;;;2.38;0.38;;;8.60;99.90;;;;;;5060162;28;20097;-63
2023/01/07 02:23:48;;;;;;;0.90;0.35;;;8.60;99.90;;;;;;5060327;28;20044;-63
2023/01/07 02:26:26;;;;;;;0.37;0.37;;;8.60;99.90;;;;;;5054495;28;20068;-63
2023/01/07 02:29:24;;;;;;;0.43;0.43;;;8.60;99.90;;;;;;5061311;28;20102;-63
2023/01/07 02:32:11;;;;;;;0.40;0.40;;;8.60;99.90;;;;;;5055146;28;20033;-62
2023/01/07 02:34:56;;;;;;;0.88;0.50;;;8.50;99.90;;;;;;5061308;28;20033;-63
2023/01/07 02:37:37;;;;;;;1.40;0.50;;;8.50;99.90;;;;;;5058730;28;20131;-62
2023/01/07 02:40:12;;;;;;;0.50;0.40;;;8.50;99.90;;;;;;5061410;28;20577;-62
2023/01/07 02:42:51;;;;;;;0.95;0.52;;;8.50;99.90;;;;;;5063816;28;20040;-63
2023/01/07 02:45:41;;;;;;;1.05;0.70;;;8.50;99.90;;;;;;5054153;28;20068;-63
2023/01/07 02:48:12;;;;;;;0.82;0.50;;;8.50;99.90;;;;;;5064677;28;20194;-63
2023/01/07 02:50:38;;;;;;;1.52;0.40;;;8.50;99.90;;;;;;5062087;28;20040;-63
2023/01/07 02:53:05;;;;;;;;;;;8.50;99.90;;;;;;5067386;28;20144;-63
2023/01/07 02:56:08;;;;;;;4.40;0.63;;;8.50;99.90;;;;;;5062052;28;20350;-63
2023/01/07 02:58:58;;;;;;;0.50;0.50;;;8.50;99.90;;;;;;5038377;28;20057;-63
2023/01/07 03:01:32;;;;;;;2.17;0.40;;;8.50;99.90;;;;;;5059214;28;20040;-63
2023/01/07 03:04:24;;;;;;;2.47;0.70;;;8.50;99.90;;;;;;5065191;28;20526;-60
2023/01/07 03:07:13;;;;;;;1.58;0.60;;;8.40;99.90;;;;;;5058023;28;20066;-63
2023/01/07 03:09:44;;;;;;;0.68;0.50;;;8.40;99.90;;;;;;5061965;28;20037;-63
2023/01/07 03:12:45;;;;;;;0.70;0.40;;;8.40;99.90;;;;;;5062671;28;20622;-63
2023/01/07 03:15:17;;;;;;;1.27;0.50;;;8.40;99.90;;;;;;5062708;28;20408;-63
2023/01/07 03:18:07;;;;;;;1.52;0.38;;;8.40;99.90;;;;;;5056524;28;20047;-62
2023/01/07 03:20:36;;;;;;;1.77;0.60;;;8.40;99.90;;;;;;5056593;28;20044;-64
2023/01/07 03:23:05;;;;;;;3.97;0.60;;;8.50;99.90;;;;;;5062718;28;20082;-63
2023/01/07 03:25:33;;;;;;;1.23;0.50;;;8.40;99.90;;;;;;5062067;28;20045;-63
2023/01/07 03:27:59;;;;;;;1.42;0.80;;;8.40;99.90;;;;;;5062549;28;20046;-63
2023/01/07 03:30:26;;;;;;;;;;;8.40;99.90;;;;;;5059444;28;20036;-63
2023/01/07 03:33:03;;;;;;;;;;;8.40;99.90;;;;;;5062977;28;20769;-62
2023/01/07 03:35:32;;;;;;;0.77;0.50;;;8.40;99.90;;;;;;5058599;28;20743;-63
2023/01/07 03:38:01;;;;;;;0.60;0.45;;;8.40;99.90;;;;;;5063581;28;20423;-63
2023/01/07 03:40:27;;;;;;;2.47;0.52;;;8.40;99.90;;;;;;5061182;28;20050;-63
2023/01/07 03:42:53;;;;;;;1.27;0.60;;;8.40;99.90;;;;;;5061354;28;20032;-61
2023/01/07 03:45:20;;;;;;;;;;;8.40;99.90;;;;;;5057287;28;20105;-63
2023/01/07 03:47:48;;;;;;;3.83;0.60;;;8.40;99.90;;;;;;5052976;28;19931;-63
2023/01/07 03:50:15;;;;;;;1.20;0.60;;;8.40;99.90;;;;;;5051700;28;20044;-62
2023/01/07 03:52:41;;;;;;;0.88;0.47;;;8.40;99.90;;;;;;5054871;28;20377;-63
2023/01/07 03:55:07;;;;;;;;;;;8.40;99.90;;;;;;5062850;28;20044;-64
2023/01/07 03:57:32;;;;;;;1.48;0.60;;;8.40;99.90;;;;;;5055915;28;19920;-63
2023/01/07 03:59:58;;;;;;;1.27;0.60;;;8.40;99.90;;;;;;5063559;28;20552;-64
2023/01/07 04:02:24;;;;;;;;;;;8.40;99.90;;;;;;5060478;28;20051;-63
2023/01/07 04:04:49;;;;;;;0.70;0.50;;;8.40;99.90;;;;;;5057939;28;19921;-63
2023/01/07 04:07:15;;;;;;;;;;;8.40;99.90;;;;;;5059577;28;20048;-62
2023/01/07 04:09:40;;;;;;;0.63;0.50;;;8.40;99.90;;;;;;5061631;28;19920;-63
2023/01/07 04:12:06;;;;;;;;;;;8.50;99.90;;;;;;5061316;28;20036;-63
2023/01/07 04:14:31;;;;;;;0.70;0.63;;;8.50;99.90;;;;;;5056020;28;20007;-64
2023/01/07 04:16:57;;;;;;;;;;;8.50;99.90;;;;;;5059129;28;20075;-64
2023/01/07 04:19:23;;;;;;;0.50;0.50;;;8.50;99.90;;;;;;5065860;28;19916;-63
2023/01/07 04:21:48;;;;;;;;;;;8.50;99.90;;;;;;5062445;28;20044;-63
2023/01/07 04:24:14;;;;;;;2.20;0.50;;;8.50;99.90;;;;;;5064888;28;19924;-63
2023/01/07 04:26:39;;;;;;;2.17;0.50;;;8.50;99.90;;;;;;5060753;28;20055;-63
2023/01/07 04:29:05;;;;;;;;;;;8.40;99.90;;;;;;5065765;28;20039;-64
2023/01/07 04:31:31;;;;;;;2.53;1.15;;;8.40;99.90;;;;;;5061888;28;19950;-64
2023/01/07 04:33:56;;;;;;;;;;;8.40;99.90;;;;;;5058280;28;20106;-63
2023/01/07 04:36:22;;;;;;;0.75;0.70;;;8.40;99.90;;;;;;5057269;28;19916;-62
2023/01/07 04:38:48;;;;;;;;;;;8.40;99.90;;;;;;5062242;28;20032;-64
2023/01/07 04:41:13;;;;;;;1.83;0.90;;;8.40;99.90;;;;;;5058081;28;19920;-64
2023/01/07 04:43:39;;;;;;;;;;;8.40;99.90;;;;;;5056849;28;20520;-62
2023/01/07 04:46:04;;;;;;;0.85;0.60;;;8.40;99.90;;;;;;5059840;28;20626;-61
2023/01/07 04:48:30;;;;;;;;;;;8.40;99.90;;;;;;5060857;28;20433;-64
2023/01/07 04:50:56;;;;;;;1.00;0.75;;;8.40;99.90;;;;;;5054629;28;19974;-62
2023/01/07 04:53:21;;;;;;;;;;;8.40;99.90;;;;;;5062906;28;20044;-61
2023/01/07 04:55:47;;;;;;;1.75;0.80;;;8.40;99.90;;;;;;5061168;28;19923;-63
2023/01/07 04:58:12;;;;;;;;;;;8.40;99.90;;;;;;5058555;28;20040;-64
2023/01/07 05:00:38;;;;;;;2.63;0.80;;;8.40;99.90;;;;;;5060383;28;19932;-64
2023/01/07 05:03:03;;;;;;;;;;;8.40;99.90;;;;;;5061107;28;20044;-63
2023/01/07 05:05:29;;;;;;;1.63;1.00;;;8.40;99.90;;;;;;5055265;28;19927;-63
2023/01/07 05:07:54;;;;;;;;;;;8.40;99.90;;;;;;5056881;28;20047;-63
2023/01/07 05:10:20;;;;;;;1.02;0.80;;;8.40;99.90;;;;;;5058587;28;20393;-63
2023/01/07 05:12:46;;;;;;;;;;;8.40;99.90;;;;;;5061947;28;20508;-63
2023/01/07 05:15:11;;;;;;;3.15;1.00;;;8.40;99.90;;;;;;5057512;28;19947;-63
2023/01/07 05:17:37;;;;;;;;;;;8.40;99.90;;;;;;5059142;28;20067;-64
2023/01/07 05:20:04;;;;;;;1.50;1.30;;;8.30;99.90;;;;;;5059346;28;20022;-63
2023/01/07 05:22:30;;;;;;;6.32;2.75;;;8.30;99.90;;;;;;5060424;28;20052;-63
2023/01/07 05:24:55;;;;;;;;;;;8.40;99.90;;;;;;5060418;28;20043;-63
2023/01/07 05:27:21;;;;;;;1.63;1.10;;;8.30;99.90;;;;;;5060735;28;19928;-64
2023/01/07 05:29:46;;;;;;;;;;;8.30;99.90;;;;;;5061443;28;20032;-64
2023/01/07 05:32:12;;;;;;;2.10;1.27;;;8.30;99.90;;;;;;5061376;28;19916;-63
2023/01/07 05:34:38;;;;;;;2.63;1.27;;;8.30;99.90;;;;;;5055501;28;20040;-63
2023/01/07 05:37:03;;;;;;;;;;;8.30;99.90;;;;;;5057363;28;20461;-63
2023/01/07 05:39:29;;;;;;;2.28;1.38;;;8.30;99.90;;;;;;5063199;28;19927;-63
2023/01/07 05:41:54;;;;;;;;;;;8.30;99.90;;;;;;5065224;28;20091;-63
2023/01/07 05:44:20;;;;;;;3.17;1.40;;;8.30;99.90;;;;;;5060636;28;20989;-62
2023/01/07 05:46:46;;;;;;;;;;;8.30;99.90;;;;;;5061056;28;20475;-62
2023/01/07 05:49:11;;;;;;;2.75;1.10;;;8.30;99.90;;;;;;5061300;28;19920;-62
2023/01/07 05:51:37;;;;;;;3.38;1.17;;;8.30;99.90;;;;;;5063034;28;20800;-62
2023/01/07 05:54:03;;;;;;;;;;;8.30;99.90;;;;;;5063802;28;20048;-63
2023/01/07 05:56:28;;;;;;;2.17;1.15;;;8.30;99.90;;;;;;5059850;28;19920;-64
2023/01/07 05:58:54;;;;;;;;;;;8.30;99.90;;;;;;5063083;28;20044;-63
2023/01/07 06:01:19;;;;;;;3.63;1.08;;;8.30;99.90;;;;;;5057534;28;19924;-63
2023/01/07 06:03:45;;;;;;;;;;;8.20;99.90;;;;;;5063106;28;20113;-63
2023/01/07 06:06:10;;;;;;;1.83;1.13;;;8.20;99.90;;;;;;5053050;28;19924;-63
2023/01/07 06:08:37;;;;;;;2.35;1.50;;;8.20;99.90;;;;;;5052591;28;20045;-64
2023/01/07 06:11:04;;;;;;;1.88;1.40;;;8.20;99.90;;;;;;5071570;28;20036;-62
2023/01/07 06:13:30;;;;;;;3.40;1.50;;;8.20;99.90;;;;;;5063136;28;20056;-63
2023/01/07 06:16:00;;;;;;;1.83;1.40;;;8.10;99.90;;;;;;5060330;28;20615;-63
2023/01/07 06:18:26;;;;;;;1.75;1.27;;;8.10;99.90;;;;;;5065128;28;20045;-63
2023/01/07 06:20:51;;;;;;;;;;;8.10;99.90;;;;;;5061903;28;20044;-61
2023/01/07 06:23:17;;;;;;;1.45;1.35;;;8.10;99.90;;;;;;5062883;28;19916;-62
2023/01/07 06:25:42;;;;;;;;;;;8.00;99.90;;;;;;5057649;28;20768;-63
2023/01/07 06:28:08;;;;;;;3.03;1.17;;;7.90;99.90;;;;;;5069334;28;19959;-63
2023/01/07 06:30:33;;;;;;;1.73;1.20;;;7.90;99.90;;;;;;5063286;28;20051;-63
2023/01/07 06:33:00;;;;;;;1.67;1.30;;;7.90;99.90;;;;;;5070220;28;20058;-60
2023/01/07 06:35:26;;;;;;;2.50;1.35;;;7.90;99.90;;;;;;5065320;28;20036;-63
2023/01/07 06:37:51;;;;;;;;;;;7.80;99.90;;;;;;5058203;28;20423;-59
2023/01/07 06:40:17;;;;;;;1.10;1.00;;;7.80;99.90;;;;;;5061161;28;19922;-62
2023/01/07 06:42:42;;;;;;;1.17;1.00;;;7.80;99.90;;;;;;5059812;28;20091;-62
2023/01/07 06:45:09;;;;;;;;;;;7.80;99.90;;;;;;5060099;28;20067;-62
2023/01/07 06:47:34;;;;;;;4.28;1.02;;;7.80;99.90;;;;;;5056286;28;19966;-63
2023/01/07 06:50:00;;;;;;;;;;;7.70;99.90;;;;;;5062512;28;20435;-61
2023/01/07 06:52:25;;;;;;;3.47;0.98;;;7.70;99.90;;;;;;5063382;28;19922;-61
2023/01/07 06:54:51;;;;;;;;;;;7.70;99.90;;;;;;5060802;28;20033;-64
2023/01/07 06:57:16;;;;;;;3.53;0.90;;;7.70;99.90;;;;;;5056097;28;19924;-62
2023/01/07 06:59:42;;;;;;;;;;;7.70;99.90;;;;;;5064303;28;20116;-61
2023/01/07 07:02:22;;;;;;;1.30;0.73;;;7.70;99.90;;;;;;5070304;28;19942;-59
2023/01/07 07:04:48;;;;;;;1.98;0.80;;;7.80;99.90;;;;;;5060290;28;20041;-62
2023/01/07 07:07:13;;;;;;;;;;;7.80;99.90;;;;;;5053233;28;20043;-61
2023/01/07 07:09:39;;;;;;;0.82;0.80;;;7.80;99.90;;;;;;5065611;28;19928;-61
2023/01/07 07:12:06;;;;;;;0.95;0.82;;;7.80;99.90;;;;;;5077384;28;20047;-63
2023/01/07 07:14:31;;;;;;;5.68;1.20;;;7.80;99.90;;;;;;5067147;28;20151;-62
2023/01/07 07:16:57;;;;;;;;;;;7.90;99.90;;;;;;5063024;28;20044;-62
2023/01/07 07:19:22;;;;;;;1.10;0.70;;;7.90;99.90;;;;;;5070701;28;19934;-61
2023/01/07 07:21:48;;;;;;;4.20;0.90;;;7.90;99.90;;;;;;5063672;28;20446;-62
2023/01/07 07:24:14;;;;;;;1.27;0.80;;;8.00;99.90;;;;;;5055160;28;20078;-63
2023/01/07 07:26:39;;;;;;;1.75;0.98;;;8.00;99.90;;;;;;5068582;28;20147;-63
2023/01/07 07:29:05;;;;;;;1.45;1.02;;;7.90;99.90;;;;;;5073546;28;20077;-62
2023/01/07 07:31:31;;;;;;;;;;;8.00;99.90;;;;;;5063860;28;20036;-63
2023/01/07 07:33:56;;;;;;;1.13;1.00;;;7.90;99.90;;;;;;5064140;28;19920;-61
2023/01/07 07:36:22;;;;;;;;;;;8.00;99.90;;;;;;5058611;28;20045;-62
2023/01/07 07:38:47;;;;;;;2.05;0.90;;;7.90;99.90;;;;;;5065307;28;19975;-62
2023/01/07 07:41:13;;;;;;;;;;;8.00;99.90;;;;;;5063778;28;20083;-62
2023/01/07 07:43:38;;;;;;;1.48;0.68;;;8.00;99.90;;;;;;5064961;28;19927;-62
2023/01/07 07:46:04;;;;;;;1.05;0.50;;;8.00;99.90;;;;;;5063136;28;20040;-63
2023/01/07 07:48:30;;;;;;;;;;;8.00;99.90;;;;;;5068663;28;20162;-63
2023/01/07 07:50:55;;;;;;;3.95;0.77;;;8.00;99.90;;;;;;5061991;28;19920;-63
2023/01/07 07:53:21;;;;;;;;;;;8.00;99.90;;;;;;5062399;28;20479;-62
2023/01/07 07:55:47;;;;;;;0.75;0.70;;;8.00;99.90;;;;;;5065690;28;19987;-63
2023/01/07 07:58:13;;;;;;;;;;;8.00;99.90;;;;;;5064667;28;20047;-63
2023/01/07 08:00:38;;;;;;;1.17;0.82;;;8.00;99.90;;;;;;5063346;28;19924;-62
2023/01/07 08:03:04;;;;;;;;;;;8.00;99.90;;;;;;5064522;28;20076;-62
2023/01/07 08:05:29;;;;;;;1.52;0.65;;;8.00;99.90;;;;;;5063361;28;19964;-62
2023/01/07 08:07:55;;;;;;;;;;;8.00;99.90;;;;;;5066463;28;20064;-62
2023/01/07 08:10:21;;;;;;;2.25;0.60;;;8.00;99.90;;;;;;5065248;28;19920;-63
2023/01/07 08:12:48;;;;;;;;;;;8.00;99.90;;;;;;5066986;28;20111;-64
2023/01/07 08:15:14;;;;;;;2.70;0.70;;;8.00;99.90;;;;;;5065539;28;19959;-63
2023/01/07 08:17:39;;;;;;;1.23;0.93;;;8.00;99.90;;;;;;5066612;28;20072;-63
2023/01/07 08:20:06;;;;;;;2.28;0.70;;;8.00;99.90;;;;;;5062676;28;20044;-63
2023/01/07 08:22:32;;;;;;;0.60;0.55;;;7.90;99.90;;;;;;5063363;28;20090;-62
2023/01/07 08:24:58;;;;;;;;;;;7.90;99.90;;;;;;5062678;28;20453;-63
2023/01/07 08:27:26;;;;;;;0.77;0.65;;;7.90;99.90;;;;;;5063058;28;20018;-63
2023/01/07 08:29:52;;;;;;;0.75;0.65;;;8.00;99.90;;;;;;5062061;28;20037;-62
2023/01/07 08:32:18;;;;;;;0.90;0.63;;;8.00;99.90;;;;;;5062220;28;20036;-63
2023/01/07 08:34:43;;;;;;;;;;;8.00;99.90;;;;;;5064921;28;20035;-62
2023/01/07 08:37:09;;;;;;;2.28;0.52;;;8.00;99.90;;;;;;5061735;28;19920;-62
2023/01/07 08:39:35;;;;;;;3.40;1.73;;;7.90;99.90;;;;;;5064042;28;20037;-63
2023/01/07 08:42:00;;;;;;;;;;;7.90;99.90;;;;;;5060897;28;20037;-61
2023/01/07 08:44:26;;;;;;;1.10;0.52;;;7.90;99.90;;;;;;5052831;28;19962;-60
2023/01/07 08:46:52;;;;;;;;;;;7.90;99.90;;;;;;5062865;28;20602;-63
2023/01/07 08:49:17;;;;;;;0.80;0.68;;;7.90;99.90;;;;;;5064047;28;19927;-62
2023/01/07 08:51:43;;;;;;;;;;;7.90;99.90;;;;;;5057813;28;20067;-61
2023/01/07 08:54:08;;;;;;;1.08;0.90;;;7.90;99.90;;;;;;5052804;28;19938;-63
2023/01/07 08:56:34;;;;;;;;;;;7.90;99.90;;;;;;5056328;28;21117;-63
2023/01/07 08:58:59;;;;;;;1.23;1.00;;;7.90;99.90;;;;;;5081789;28;20454;-63
2023/01/07 09:01:25;;;;;;;1.20;0.75;;;7.90;99.90;;;;;;5067007;28;20037;-62
2023/01/07 09:03:51;;;;;;;2.17;0.70;;;7.90;99.90;;;;;;5060675;28;20099;-63
2023/01/07 09:06:16;;;;;;;;;;;7.90;99.90;;;;;;5066198;28;20127;-62
2023/01/07 09:08:42;;;;;;;1.10;0.90;;;8.00;99.90;;;;;;5061411;28;19948;-62
2023/01/07 09:11:07;;;;;;;;;;;8.00;99.90;;;;;;5076310;28;20805;-62
2023/01/07 09:13:33;;;;;;;2.08;0.90;;;8.00;99.90;;;;;;5066536;28;20016;-62
2023/01/07 09:15:59;;;;;;;1.58;0.82;;;8.00;99.90;;;;;;5069612;28;20153;-62
2023/01/07 09:18:25;;;;;;;2.78;1.35;;;8.00;99.90;;;;;;5058797;28;20120;-61
2023/01/07 09:20:50;;;;;;;;;;;8.10;99.90;;;;;;5061959;28;20039;-61
2023/01/07 09:23:16;;;;;;;3.40;1.25;;;8.20;99.90;;;;;;5069637;28;20553;-61
2023/01/07 09:25:42;;;;;;;;;;;8.20;99.90;;;;;;5072363;28;20492;-62
2023/01/07 09:28:07;;;;;;;1.67;1.08;;;8.20;99.90;;;;;;5074267;28;19920;-62
2023/01/07 09:30:33;;;;;;;;;;;8.20;99.90;;;;;;5066986;28;20139;-61
2023/01/07 09:32:58;;;;;;;1.50;1.08;;;8.20;99.90;;;;;;5069882;28;19917;-62
2023/01/07 09:35:24;;;;;;;;;;;8.30;99.90;;;;;;5063880;28;20065;-63
2023/01/07 09:37:49;;;;;;;1.63;0.88;;;8.20;99.90;;;;;;5070313;28;19982;-62
2023/01/07 09:40:22;;;;;;;;;;;8.20;99.90;;;;;;5077306;28;20036;-62
2023/01/07 09:43:09;;;;;;;1.90;1.50;;;8.30;99.90;;;;;;5057527;28;20469;-63
2023/01/07 09:45:53;;;;;;;;;;;8.20;99.90;;;;;;5065778;28;20063;-62
2023/01/07 09:48:33;;;;;;;1.65;1.33;;;8.20;99.90;;;;;;5056518;28;20184;-62
2023/01/07 09:51:04;;;;;;;1.83;1.00;;;8.30;99.90;;;;;;5063373;28;20040;-63
2023/01/07 09:53:41;;;;;;;1.80;1.05;;;8.40;99.90;;;;;;5062672;28;20044;-63
2023/01/07 09:56:28;;;;;;;8.10;1.23;;;8.50;99.90;;;;;;5058443;28;20454;-62
2023/01/07 09:58:56;;;;;;;1.63;0.95;;;8.40;99.90;;;;;;5061528;28;20032;-63
2023/01/07 10:01:51;;;;;;;1.30;0.93;;;8.40;99.90;;;;;;5057842;28;20135;-62
2023/01/07 10:04:19;;;;;;;1.52;1.10;;;8.40;99.90;;;;;;5051345;28;20424;-61
2023/01/07 10:06:58;;;;;;;1.42;0.98;;;8.40;99.90;;;;;;5052115;28;20049;-63
2023/01/07 10:09:37;;;;;;;2.70;1.10;;;8.30;99.90;;;;;;5053272;28;20052;-63
2023/01/07 10:12:16;;;;;;;1.77;0.88;;;8.30;99.90;;;;;;5063736;28;20032;-62
2023/01/07 10:14:50;;;;;;;1.63;0.93;;;8.20;99.90;;;;;;5061140;28;20060;-62
2023/01/07 10:17:25;;;;;;;4.05;1.38;;;8.10;99.90;;;;;;5059365;28;20472;-61
2023/01/07 10:20:10;;;;;;;1.92;1.25;;;8.10;99.90;;;;;;5062520;28;20072;-61
2023/01/07 10:22:43;;;;;;;1.55;0.88;;;8.10;99.90;;;;;;5062098;28;20044;-62
2023/01/07 10:25:29;;;;;;;1.00;0.82;;;8.10;99.90;;;;;;5062733;28;20057;-63
2023/01/07 10:28:01;;;;;;;1.30;1.02;;;8.10;99.90;;;;;;5069923;28;20640;-63
2023/01/07 10:30:30;;;;;;;1.20;1.00;;;8.10;99.90;;;;;;5065457;28;20041;-62
2023/01/07 10:33:25;;;;;;;2.60;1.08;;;8.10;99.90;;;;;;5063227;28;20889;-61
2023/01/07 10:36:17;;;;;;;2.13;1.20;;;8.10;99.90;;;;;;5054551;28;20140;-61
2023/01/07 10:38:52;;;;;;;4.78;1.05;;;8.00;99.90;;;;;;5063928;28;20170;-62
2023/01/07 10:41:52;;;;;;;1.70;1.30;;;8.00;99.90;;;;;;5059829;28;20119;-62
2023/01/07 10:44:39;;;;;;;5.78;1.20;;;8.00;99.90;;;;;;5030913;28;20097;-62
2023/01/07 10:47:07;;;;;;;1.77;1.05;;;8.10;99.90;;;;;;5069865;28;20049;-63
2023/01/07 10:49:45;;;;;;;0.98;0.88;;;8.10;99.90;;;;;;5061362;28;20079;-62
2023/01/07 10:52:34;;;;;;;2.42;1.20;;;8.10;99.90;;;;;;5055866;28;20032;-61
2023/01/07 10:55:41;;;;;;;2.53;1.00;;;8.10;99.90;;;;;;5053426;28;20056;-63
2023/01/07 10:58:10;;;;;;;1.27;0.85;;;8.10;99.90;;;;;;5061562;28;20048;-63
2023/01/07 11:00:37;;;;;;;1.92;1.20;;;8.10;99.90;;;;;;5062715;28;20048;-63
2023/01/07 11:03:03;;;;;;;2.08;1.10;;;8.10;99.90;;;;;;5060897;28;20098;-64
2023/01/07 11:05:36;;;;;;;;;;;8.10;99.90;;;;;;5061076;28;20051;-62
2023/01/07 11:08:03;;;;;;;3.63;1.08;;;8.20;99.90;;;;;;5068631;28;19920;-66
2023/01/07 11:10:35;;;;;;;1.05;0.73;;;8.20;99.90;;;;;;5056350;28;20043;-62
2023/01/07 11:13:24;;;;;;;1.42;0.90;;;8.20;99.90;;;;;;5073334;28;20048;-62
2023/01/07 11:15:54;;;;;;;1.08;0.70;;;8.30;99.90;;;;;;5071412;28;20036;-62
2023/01/07 11:18:25;;;;;;;2.95;0.85;;;8.40;99.90;;;;;;5068559;28;20044;-61
2023/01/07 11:20:56;;;;;;;2.28;0.80;;;8.40;99.90;;;;;;5064962;28;20412;-63
2023/01/07 11:23:39;;;;;;;2.03;1.15;;;8.40;99.90;;;;;;5062330;28;20051;-62
2023/01/07 11:26:09;;;;;;;2.28;1.48;;;8.50;99.90;;;;;;5061754;28;20072;-61
2023/01/07 11:28:36;;;;;;;1.17;0.80;;;8.40;99.90;;;;;;5067420;28;20043;-62
2023/01/07 11:31:02;;;;;;;1.17;0.88;;;8.40;99.90;;;;;;5055283;28;20417;-62
2023/01/07 11:33:39;;;;;;;;;;;8.40;99.90;;;;;;5053224;28;20041;-64
2023/01/07 11:36:05;;;;;;;1.33;1.08;;;8.30;99.90;;;;;;5051274;28;19947;-60
2023/01/07 11:38:36;;;;;;;1.63;0.98;;;8.40;99.90;;;;;;5065872;28;20048;-60
2023/01/07 11:41:05;;;;;;;1.67;0.80;;;8.30;99.90;;;;;;5058596;28;20400;-62
2023/01/07 11:43:51;;;;;;;1.77;0.98;;;8.40;99.90;;;;;;5060510;28;20177;-62
2023/01/07 11:46:19;;;;;;;1.58;0.95;;;8.40;99.90;;;;;;5054896;28;20041;-62
2023/01/07 11:48:51;;;;;;;5.00;1.25;;;8.30;99.90;;;;;;5060491;28;20053;-61
2023/01/07 11:51:20;;;;;;;1.42;1.17;;;8.30;99.90;;;;;;5059563;28;20559;-61
2023/01/07 11:53:52;;;;;;;1.67;1.00;;;8.30;99.90;;;;;;5060263;28;20536;-63
2023/01/07 11:56:28;;;;;;;1.55;1.10;;;8.30;99.90;;;;;;5061553;28;20400;-62
2023/01/07 11:59:14;;;;;;;2.08;1.17;;;8.40;99.90;;;;;;5062616;28;20075;-61
2023/01/07 12:01:44;;;;;;;1.50;1.05;;;8.40;99.90;;;;;;5061755;28;20090;-63
2023/01/07 12:04:30;;;;;;;2.88;1.50;;;8.40;99.90;;;;;;5058405;28;20097;-61
2023/01/07 12:07:16;;;;;;;1.52;1.10;;;8.30;99.90;;;;;;5061395;28;20127;-63
2023/01/07 12:09:43;;;;;;;1.30;0.80;;;8.30;99.90;;;;;;5062046;28;20049;-62
2023/01/07 12:12:33;;;;;;;2.15;1.30;;;8.30;99.90;;;;;;5063125;28;20046;-62
2023/01/07 12:15:23;;;;;;;1.60;1.10;;;8.20;99.90;;;;;;5058492;28;20688;-63
2023/01/07 12:18:23;;;;;;;3.10;1.60;;;8.10;99.90;;;;;;5061420;28;20067;-62
2023/01/07 12:21:10;;;;;;;2.33;1.67;;;8.20;99.90;;;;;;5062274;28;20043;-63
2023/01/07 12:24:05;;;;;;;2.13;1.40;;;8.20;99.90;;;;;;5062490;28;20064;-62
2023/01/07 12:26:53;;;;;;;2.25;1.33;;;8.30;99.90;;;;;;5064422;28;20060;-63
2023/01/07 12:29:40;;;;;;;3.17;1.40;;;8.40;99.90;;;;;;5059404;28;20028;-61
2023/01/07 12:32:44;;;;;;;2.75;1.40;;;8.50;99.90;;;;;;5065888;28;20082;-66
2023/01/07 12:35:19;;;;;;;5.25;1.30;;;8.30;99.90;;;;;;5057074;28;20064;-63
2023/01/07 12:37:51;;;;;;;2.92;1.23;;;8.30;99.90;;;;;;5053201;28;20488;-63
2023/01/07 12:40:46;;;;;;;2.30;1.40;;;8.30;99.90;;;;;;5052740;28;20072;-61
2023/01/07 12:43:36;;;;;;;2.45;1.40;;;8.30;99.90;;;;;;5059976;28;20128;-62
2023/01/07 12:46:04;;;;;;;1.45;1.25;;;8.20;99.90;;;;;;5066248;28;20059;-62
2023/01/07 12:48:47;;;;;;;1.30;1.10;;;8.10;99.90;;;;;;5067222;28;20555;-63
2023/01/07 12:51:23;;;;;;;1.73;1.17;;;8.20;99.90;;;;;;5063682;28;20079;-62
2023/01/07 12:54:14;;;;;;;1.83;1.23;;;8.10;99.90;;;;;;5063495;28;20090;-62
2023/01/07 12:56:46;;;;;;;2.05;1.25;;;8.20;99.90;;;;;;5058634;28;20044;-63
2023/01/07 12:59:26;;;;;;;1.20;1.05;;;8.30;99.90;;;;;;5060370;28;20122;-62
2023/01/07 13:02:07;;;;;;;3.67;1.25;;;8.30;99.90;;;;;;5067167;28;20041;-62
2023/01/07 13:04:56;;;;;;;6.25;1.55;;;8.20;99.90;;;;;;5069311;28;20072;-62
2023/01/07 13:07:37;;;;;;;1.45;0.95;;;8.10;99.90;;;;;;5065941;28;20060;-63
2023/01/07 13:10:11;;;;;;;1.55;1.00;;;8.10;99.90;;;;;;5064262;28;20040;-62
2023/01/07 13:12:42;;;;;;;2.50;1.23;;;8.10;99.90;;;;;;5067014;28;20052;-63
2023/01/07 13:15:26;;;;;;;9.48;1.58;;;8.10;99.90;;;;;;5061049;28;20049;-62
2023/01/07 13:17:57;;;;;;;2.38;1.02;;;8.00;99.90;;;;;;5059881;28;20045;-63
2023/01/07 13:20:54;;;;;;;3.47;1.65;;;8.10;99.90;;;;;;5073981;28;20122;-63
2023/01/07 13:23:25;;;;;;;4.07;1.23;;;8.00;99.90;;;;;;5057855;28;20048;-63
2023/01/07 13:26:29;;;;;;;1.35;1.02;;;8.00;99.90;;;;;;5062005;28;20048;-63
2023/01/07 13:29:16;;;;;;;2.75;1.10;;;8.00;99.90;;;;;;5061416;28;20044;-63
2023/01/07 13:31:47;;;;;;;1.90;1.30;;;8.10;99.90;;;;;;5060983;28;20091;-63
2023/01/07 13:34:23;;;;;;;4.20;1.30;;;8.10;99.90;;;;;;5049412;28;20061;-61
2023/01/07 13:37:03;;;;;;;4.15;1.55;;;8.10;99.90;;;;;;5056850;28;20463;-63